createdAt,value
2017-06-09T00:01:06.042Z,0
2017-06-09T00:01:46.431Z,0
2017-06-09T00:02:26.827Z,0
2017-06-09T00:03:07.258Z,0
2017-06-09T00:03:47.638Z,0
2017-06-09T00:04:28.045Z,0
2017-06-09T00:05:08.453Z,0
2017-06-09T00:05:48.836Z,0
2017-06-09T00:06:29.193Z,0
2017-06-09T00:07:09.891Z,0
2017-06-09T00:07:50.286Z,0
2017-06-09T00:08:30.686Z,0
2017-06-09T00:09:11.162Z,0
2017-06-09T00:09:51.573Z,0
2017-06-09T00:10:31.990Z,0
2017-06-09T00:11:12.710Z,0
2017-06-09T00:11:53.125Z,0
2017-06-09T00:12:33.568Z,0
2017-06-09T00:13:13.992Z,0
2017-06-09T00:13:54.362Z,0
2017-06-09T00:14:34.774Z,0
2017-06-09T00:15:15.171Z,0
2017-06-09T00:15:55.658Z,0
2017-06-09T00:16:36.048Z,0
2017-06-09T00:17:16.468Z,0
2017-06-09T00:17:56.874Z,0
2017-06-09T00:18:37.295Z,0
2017-06-09T00:19:17.728Z,0
2017-06-09T00:19:58.128Z,0
2017-06-09T00:20:38.895Z,0
2017-06-09T00:21:19.246Z,0
2017-06-09T00:21:59.709Z,0
2017-06-09T00:22:40.540Z,0
2017-06-09T00:23:20.979Z,0
2017-06-09T00:24:01.622Z,0
2017-06-09T00:24:42.024Z,0
2017-06-09T00:25:22.413Z,0
2017-06-09T00:26:02.797Z,0
2017-06-09T00:26:43.238Z,0
2017-06-09T00:27:23.804Z,0
2017-06-09T00:28:04.201Z,0
2017-06-09T00:28:44.627Z,0
2017-06-09T00:29:24.999Z,0
2017-06-09T00:30:05.642Z,0
2017-06-09T00:30:46.054Z,0
2017-06-09T00:31:26.444Z,0
2017-06-09T00:32:06.838Z,0
2017-06-09T00:32:47.315Z,0
2017-06-09T00:33:27.728Z,0
2017-06-09T00:34:08.110Z,0
2017-06-09T00:34:50.509Z,0
2017-06-09T00:35:30.904Z,0
2017-06-09T00:36:11.347Z,0
2017-06-09T00:36:51.755Z,0
2017-06-09T00:37:32.198Z,0
2017-06-09T00:38:12.831Z,0
2017-06-09T00:38:53.315Z,0
2017-06-09T00:39:33.743Z,0
2017-06-09T00:40:14.139Z,0
2017-06-09T00:40:54.545Z,0
2017-06-09T00:41:34.920Z,0
2017-06-09T00:42:15.387Z,0
2017-06-09T00:42:55.791Z,0
2017-06-09T00:43:36.209Z,0
2017-06-09T00:44:16.769Z,0
2017-06-09T00:44:57.217Z,0
2017-06-09T00:45:37.624Z,0
2017-06-09T00:46:18.071Z,0
2017-06-09T00:46:59.384Z,0
2017-06-09T00:47:39.833Z,0
2017-06-09T00:48:20.237Z,0
2017-06-09T00:49:00.661Z,0
2017-06-09T00:49:41.098Z,0
2017-06-09T00:50:21.675Z,0
2017-06-09T00:51:01.986Z,0
2017-06-09T00:51:42.394Z,0
2017-06-09T00:52:22.881Z,0
2017-06-09T00:53:03.276Z,0
2017-06-09T00:53:43.716Z,0
2017-06-09T00:54:24.173Z,0
2017-06-09T00:55:04.578Z,0
2017-06-09T00:55:44.990Z,0
2017-06-09T00:56:25.368Z,0
2017-06-09T00:57:05.729Z,0
2017-06-09T00:57:46.162Z,0
2017-06-09T00:58:26.574Z,0
2017-06-09T00:59:06.953Z,0
2017-06-09T00:59:47.415Z,0
2017-06-09T01:00:28.559Z,0
2017-06-09T01:01:09.536Z,0
2017-06-09T01:01:49.982Z,0
2017-06-09T01:02:30.385Z,0
2017-06-09T01:03:10.786Z,0
2017-06-09T01:03:51.185Z,0
2017-06-09T01:04:31.606Z,0
2017-06-09T01:05:12.008Z,0
2017-06-09T01:05:52.429Z,0
2017-06-09T01:06:32.809Z,0
2017-06-09T01:07:13.214Z,0
2017-06-09T01:07:53.620Z,0
2017-06-09T01:08:34.062Z,0
2017-06-09T01:09:14.501Z,0
2017-06-09T01:09:54.844Z,0
2017-06-09T01:10:35.462Z,0
2017-06-09T01:11:16.496Z,0
2017-06-09T01:11:56.958Z,0
2017-06-09T01:12:37.319Z,0
2017-06-09T01:13:17.752Z,0
2017-06-09T01:13:58.152Z,0
2017-06-09T01:14:39.020Z,0
2017-06-09T01:15:19.432Z,0
2017-06-09T01:15:59.827Z,0
2017-06-09T01:16:40.224Z,0
2017-06-09T01:17:20.677Z,0
2017-06-09T01:18:01.048Z,0
2017-06-09T01:18:41.466Z,0
2017-06-09T01:20:59.534Z,0
2017-06-09T01:21:39.951Z,0
2017-06-09T01:22:20.361Z,0
2017-06-09T01:23:00.753Z,0
2017-06-09T01:23:41.164Z,0
2017-06-09T01:24:22.031Z,0
2017-06-09T01:25:02.458Z,0
2017-06-09T01:25:42.907Z,0
2017-06-09T01:26:23.248Z,0
2017-06-09T01:27:04.713Z,0
2017-06-09T01:27:46.390Z,0
2017-06-09T01:28:26.807Z,0
2017-06-09T01:29:07.170Z,0
2017-06-09T01:29:47.592Z,0
2017-06-09T01:30:28.035Z,0
2017-06-09T01:31:08.440Z,0
2017-06-09T01:31:48.823Z,0
2017-06-09T01:32:29.201Z,0
2017-06-09T01:33:09.574Z,0
2017-06-09T01:33:50.101Z,0
2017-06-09T01:34:30.498Z,0
2017-06-09T01:35:10.906Z,0
2017-06-09T01:35:51.290Z,0
2017-06-09T01:36:31.715Z,0
2017-06-09T01:37:12.136Z,0
2017-06-09T01:37:52.522Z,0
2017-06-09T01:38:32.930Z,0
2017-06-09T01:39:13.332Z,0
2017-06-09T01:39:53.750Z,0
2017-06-09T01:40:34.158Z,0
2017-06-09T01:41:16.733Z,0
2017-06-09T01:41:57.913Z,0
2017-06-09T01:42:38.356Z,0
2017-06-09T01:43:18.753Z,0
2017-06-09T01:43:59.165Z,0
2017-06-09T01:44:39.548Z,0
2017-06-09T01:45:21.093Z,0
2017-06-09T01:46:01.536Z,0
2017-06-09T01:46:41.966Z,0
2017-06-09T01:47:22.353Z,0
2017-06-09T01:48:02.755Z,0
2017-06-09T01:48:43.215Z,0
2017-06-09T01:49:24.422Z,0
2017-06-09T01:50:04.951Z,0
2017-06-09T01:50:45.391Z,0
2017-06-09T01:51:25.774Z,0
2017-06-09T01:52:06.681Z,0
2017-06-09T01:52:47.158Z,0
2017-06-09T01:53:27.618Z,0
2017-06-09T01:54:08.148Z,0
2017-06-09T01:54:49.521Z,0
2017-06-09T01:55:29.950Z,0
2017-06-09T01:56:10.331Z,0
2017-06-09T01:56:50.775Z,0
2017-06-09T01:57:31.187Z,0
2017-06-09T01:59:49.347Z,0
2017-06-09T02:00:29.771Z,0
2017-06-09T02:01:10.179Z,0
2017-06-09T02:01:50.617Z,0
2017-06-09T02:02:31.049Z,0
2017-06-09T02:03:11.418Z,0
2017-06-09T02:03:51.873Z,0
2017-06-09T02:04:32.298Z,0
2017-06-09T02:05:13.821Z,0
2017-06-09T02:05:54.153Z,0
2017-06-09T02:06:34.575Z,0
2017-06-09T02:07:15.722Z,0
2017-06-09T02:09:28.736Z,0
2017-06-09T02:10:09.113Z,0
2017-06-09T02:10:49.553Z,0
2017-06-09T02:11:29.967Z,0
2017-06-09T02:12:10.344Z,0
2017-06-09T02:12:50.838Z,0
2017-06-09T02:13:31.404Z,0
2017-06-09T02:14:12.013Z,0
2017-06-09T02:14:52.806Z,0
2017-06-09T02:15:33.194Z,0
2017-06-09T02:16:13.616Z,0
2017-06-09T02:16:54.037Z,0
2017-06-09T02:17:34.503Z,0
2017-06-09T02:18:14.951Z,0
2017-06-09T02:18:55.752Z,0
2017-06-09T02:19:36.342Z,0
2017-06-09T02:20:16.788Z,0
2017-06-09T02:20:57.278Z,0
2017-06-09T02:21:39.046Z,0
2017-06-09T02:22:20.003Z,0
2017-06-09T02:23:00.403Z,0
2017-06-09T02:23:40.760Z,0
2017-06-09T02:24:21.200Z,0
2017-06-09T02:25:01.610Z,0
2017-06-09T02:25:42.937Z,0
2017-06-09T02:26:23.351Z,0
2017-06-09T02:27:03.822Z,0
2017-06-09T02:27:44.235Z,0
2017-06-09T02:28:25.324Z,0
2017-06-09T02:29:05.969Z,0
2017-06-09T02:29:46.357Z,0
2017-06-09T02:30:26.792Z,0
2017-06-09T02:31:07.163Z,0
2017-06-09T02:31:47.587Z,0
2017-06-09T02:32:28.040Z,0
2017-06-09T02:33:08.430Z,0
2017-06-09T02:33:49.126Z,0
2017-06-09T02:34:29.525Z,0
2017-06-09T02:35:09.954Z,0
2017-06-09T02:35:50.389Z,0
2017-06-09T02:36:30.818Z,0
2017-06-09T02:37:11.230Z,0
2017-06-09T02:37:51.628Z,0
2017-06-09T02:38:32.031Z,0
2017-06-09T02:39:12.426Z,0
2017-06-09T02:39:52.819Z,0
2017-06-09T02:40:33.266Z,0
2017-06-09T02:41:13.678Z,0
2017-06-09T02:41:54.095Z,0
2017-06-09T02:42:34.515Z,0
2017-06-09T02:43:14.960Z,0
2017-06-09T02:43:55.364Z,0
2017-06-09T02:44:35.757Z,0
2017-06-09T02:45:16.239Z,0
2017-06-09T02:45:56.705Z,0
2017-06-09T02:46:37.139Z,0
2017-06-09T02:47:17.573Z,0
2017-06-09T02:47:57.978Z,0
2017-06-09T02:48:38.507Z,0
2017-06-09T02:49:18.933Z,0
2017-06-09T02:49:59.380Z,0
2017-06-09T02:50:39.759Z,0
2017-06-09T02:51:20.132Z,0
2017-06-09T02:52:00.593Z,0
2017-06-09T02:52:41.028Z,0
2017-06-09T02:53:21.412Z,0
2017-06-09T02:54:01.849Z,0
2017-06-09T02:54:42.255Z,0
2017-06-09T02:55:22.644Z,0
2017-06-09T02:56:03.100Z,0
2017-06-09T02:56:43.492Z,0
2017-06-09T02:57:23.887Z,0
2017-06-09T02:58:05.212Z,0
2017-06-09T02:58:45.630Z,0
2017-06-09T02:59:26.073Z,0
2017-06-09T03:00:06.480Z,0
2017-06-09T03:00:46.912Z,0
2017-06-09T03:01:27.307Z,0
2017-06-09T03:02:07.675Z,0
2017-06-09T03:02:48.074Z,0
2017-06-09T03:03:28.591Z,0
2017-06-09T03:04:09.551Z,0
2017-06-09T03:04:49.998Z,0
2017-06-09T03:05:30.391Z,0
2017-06-09T03:06:10.854Z,5
2017-06-09T03:06:51.255Z,5
2017-06-09T03:07:31.736Z,5
2017-06-09T03:08:12.117Z,5
2017-06-09T03:08:52.533Z,5
2017-06-09T03:09:32.981Z,5
2017-06-09T03:12:06.109Z,5
2017-06-09T03:12:46.534Z,5
2017-06-09T03:13:26.994Z,5
2017-06-09T03:14:07.489Z,5
2017-06-09T03:14:47.958Z,5
2017-06-09T03:15:28.672Z,5
2017-06-09T03:16:09.548Z,5
2017-06-09T03:16:49.962Z,5
2017-06-09T03:17:30.342Z,10
2017-06-09T03:18:10.822Z,10
2017-06-09T03:18:51.210Z,10
2017-06-09T03:19:31.779Z,10
2017-06-09T03:20:12.246Z,10
2017-06-09T03:20:52.656Z,10
2017-06-09T03:21:33.079Z,10
2017-06-09T03:22:13.567Z,10
2017-06-09T03:22:54.077Z,10
2017-06-09T03:23:34.540Z,10
2017-06-09T03:24:14.931Z,10
2017-06-09T03:24:55.318Z,15
2017-06-09T03:25:36.492Z,15
2017-06-09T03:26:16.880Z,15
2017-06-09T03:26:57.313Z,15
2017-06-09T03:27:37.672Z,15
2017-06-09T03:28:18.122Z,15
2017-06-09T03:28:58.563Z,15
2017-06-09T03:29:38.955Z,15
2017-06-09T03:30:19.410Z,15
2017-06-09T03:30:59.802Z,20
2017-06-09T03:31:40.210Z,20
2017-06-09T03:32:20.655Z,20
2017-06-09T03:33:01.053Z,20
2017-06-09T03:33:41.472Z,20
2017-06-09T03:34:21.853Z,20
2017-06-09T03:35:02.274Z,20
2017-06-09T03:35:42.697Z,25
2017-06-09T03:36:23.114Z,25
2017-06-09T03:37:03.488Z,25
2017-06-09T03:37:43.874Z,25
2017-06-09T03:38:24.318Z,25
2017-06-09T03:39:04.715Z,25
2017-06-09T03:39:45.161Z,25
2017-06-09T03:40:25.556Z,25
2017-06-09T03:41:05.931Z,30
2017-06-09T03:41:46.365Z,30
2017-06-09T03:42:26.745Z,30
2017-06-09T03:43:07.217Z,30
2017-06-09T03:43:47.601Z,30
2017-06-09T03:44:28.066Z,30
2017-06-09T03:45:08.430Z,35
2017-06-09T03:45:48.841Z,35
2017-06-09T03:46:29.267Z,35
2017-06-09T03:47:09.716Z,35
2017-06-09T03:47:50.121Z,35
2017-06-09T03:48:30.576Z,40
2017-06-09T03:49:10.985Z,40
2017-06-09T03:49:51.371Z,40
2017-06-09T03:50:31.766Z,40
2017-06-09T03:51:12.190Z,40
2017-06-09T03:53:25.831Z,45
2017-06-09T03:54:06.886Z,50
2017-06-09T03:54:47.697Z,50
2017-06-09T03:55:28.241Z,50
2017-06-09T03:56:08.739Z,55
2017-06-09T03:56:49.181Z,55
2017-06-09T03:57:29.621Z,55
2017-06-09T03:58:10.004Z,60
2017-06-09T03:58:50.430Z,60
2017-06-09T03:59:30.856Z,60
2017-06-09T04:00:11.298Z,60
2017-06-09T04:00:51.690Z,65
2017-06-09T04:01:32.066Z,65
2017-06-09T04:02:12.721Z,70
2017-06-09T04:02:53.097Z,70
2017-06-09T04:03:33.504Z,70
2017-06-09T04:04:14.010Z,70
2017-06-09T04:04:54.540Z,75
2017-06-09T04:05:35.025Z,75
2017-06-09T04:06:15.611Z,75
2017-06-09T04:06:56.023Z,75
2017-06-09T04:07:36.433Z,75
2017-06-09T04:08:16.804Z,75
2017-06-09T04:08:57.284Z,80
2017-06-09T04:09:37.707Z,80
2017-06-09T04:10:18.544Z,80
2017-06-09T04:10:59.045Z,80
2017-06-09T04:11:40.392Z,80
2017-06-09T04:12:20.803Z,80
2017-06-09T04:13:01.270Z,85
2017-06-09T04:13:41.678Z,85
2017-06-09T04:14:22.188Z,85
2017-06-09T04:15:02.666Z,90
2017-06-09T04:15:43.047Z,90
2017-06-09T04:16:23.576Z,90
2017-06-09T04:17:04.006Z,95
2017-06-09T04:17:44.440Z,95
2017-06-09T04:18:25.604Z,100
2017-06-09T04:19:06.026Z,100
2017-06-09T04:19:46.446Z,100
2017-06-09T04:20:26.913Z,100
2017-06-09T04:21:07.326Z,100
2017-06-09T04:21:47.708Z,105
2017-06-09T04:22:28.191Z,110
2017-06-09T04:23:08.624Z,115
2017-06-09T04:23:49.076Z,115
2017-06-09T04:24:29.452Z,115
2017-06-09T04:25:09.923Z,115
2017-06-09T04:25:50.385Z,120
2017-06-09T04:26:30.694Z,120
2017-06-09T04:27:11.233Z,120
2017-06-09T04:27:51.635Z,120
2017-06-09T04:28:32.054Z,120
2017-06-09T04:29:12.453Z,125
2017-06-09T04:31:26.071Z,130
2017-06-09T04:32:06.416Z,130
2017-06-09T04:32:46.940Z,130
2017-06-09T04:33:27.302Z,130
2017-06-09T04:34:07.737Z,130
2017-06-09T04:34:48.134Z,130
2017-06-09T04:35:28.543Z,130
2017-06-09T04:36:08.972Z,130
2017-06-09T04:36:49.374Z,130
2017-06-09T04:37:30.035Z,130
2017-06-09T04:38:10.454Z,135
2017-06-09T04:38:50.926Z,130
2017-06-09T04:39:31.305Z,140
2017-06-09T04:40:11.703Z,140
2017-06-09T04:40:52.116Z,145
2017-06-09T04:41:32.558Z,145
2017-06-09T04:42:12.952Z,145
2017-06-09T04:42:53.356Z,150
2017-06-09T04:43:33.788Z,150
2017-06-09T04:44:14.210Z,145
2017-06-09T04:44:54.577Z,145
2017-06-09T04:45:35.069Z,150
2017-06-09T04:46:15.432Z,160
2017-06-09T04:46:55.833Z,150
2017-06-09T04:47:36.255Z,150
2017-06-09T04:48:16.681Z,145
2017-06-09T04:48:57.089Z,150
2017-06-09T04:49:37.495Z,150
2017-06-09T04:50:17.935Z,145
2017-06-09T04:50:58.278Z,135
2017-06-09T04:51:38.698Z,145
2017-06-09T04:52:19.291Z,145
2017-06-09T04:52:59.761Z,145
2017-06-09T04:53:40.115Z,145
2017-06-09T04:54:20.521Z,150
2017-06-09T04:55:00.971Z,140
2017-06-09T04:55:41.379Z,135
2017-06-09T04:56:21.802Z,135
2017-06-09T04:57:02.160Z,135
2017-06-09T04:57:42.544Z,140
2017-06-09T04:58:23.011Z,145
2017-06-09T04:59:03.417Z,145
2017-06-09T04:59:43.988Z,165
2017-06-09T05:00:24.502Z,155
2017-06-09T05:01:04.908Z,155
2017-06-09T05:01:45.297Z,160
2017-06-09T05:02:25.710Z,180
2017-06-09T05:03:06.144Z,185
2017-06-09T05:03:46.552Z,180
2017-06-09T05:04:26.919Z,180
2017-06-09T05:05:07.366Z,185
2017-06-09T05:05:47.824Z,185
2017-06-09T05:06:28.178Z,195
2017-06-09T05:07:08.658Z,200
2017-06-09T05:07:49.062Z,200
2017-06-09T05:08:29.461Z,205
2017-06-09T05:09:09.871Z,205
2017-06-09T05:09:50.307Z,205
2017-06-09T05:10:30.686Z,205
2017-06-09T05:11:11.101Z,210
2017-06-09T05:11:51.534Z,210
2017-06-09T05:12:31.993Z,215
2017-06-09T05:13:12.417Z,205
2017-06-09T05:13:52.824Z,210
2017-06-09T05:14:33.324Z,215
2017-06-09T05:15:13.743Z,215
2017-06-09T05:15:54.150Z,215
2017-06-09T05:16:34.588Z,220
2017-06-09T05:17:15.043Z,220
2017-06-09T05:17:55.463Z,220
2017-06-09T05:18:35.874Z,225
2017-06-09T05:19:16.276Z,225
2017-06-09T05:19:56.723Z,225
2017-06-09T05:20:37.131Z,225
2017-06-09T05:21:17.519Z,235
2017-06-09T05:21:57.889Z,230
2017-06-09T05:22:38.292Z,230
2017-06-09T05:23:18.689Z,230
2017-06-09T05:23:59.121Z,235
2017-06-09T05:24:39.552Z,235
2017-06-09T05:25:19.960Z,235
2017-06-09T05:26:00.457Z,240
2017-06-09T05:26:40.824Z,240
2017-06-09T05:27:21.297Z,240
2017-06-09T05:28:01.750Z,240
2017-06-09T05:28:42.236Z,245
2017-06-09T05:29:22.820Z,245
2017-06-09T05:30:03.135Z,245
2017-06-09T05:30:43.515Z,245
2017-06-09T05:31:23.965Z,250
2017-06-09T05:32:04.417Z,250
2017-06-09T05:32:44.883Z,250
2017-06-09T05:33:25.311Z,255
2017-06-09T05:34:05.662Z,255
2017-06-09T05:34:46.179Z,255
2017-06-09T05:35:26.544Z,255
2017-06-09T05:36:06.897Z,255
2017-06-09T05:36:47.320Z,260
2017-06-09T05:37:27.695Z,260
2017-06-09T05:38:08.138Z,265
2017-06-09T05:38:48.945Z,265
2017-06-09T05:39:29.525Z,265
2017-06-09T05:40:10.090Z,265
2017-06-09T05:40:50.572Z,265
2017-06-09T05:41:31.509Z,265
2017-06-09T05:42:12.668Z,270
2017-06-09T05:42:53.118Z,270
2017-06-09T05:43:33.534Z,270
2017-06-09T05:44:14.186Z,270
2017-06-09T05:44:55.544Z,270
2017-06-09T05:45:36.264Z,275
2017-06-09T05:46:17.653Z,275
2017-06-09T05:46:58.117Z,275
2017-06-09T05:47:39.025Z,275
2017-06-09T05:48:19.470Z,280
2017-06-09T05:48:59.855Z,280
2017-06-09T05:49:40.293Z,275
2017-06-09T05:50:20.686Z,280
2017-06-09T05:51:01.607Z,285
2017-06-09T05:51:42.093Z,285
2017-06-09T05:52:22.498Z,285
2017-06-09T05:53:02.973Z,285
2017-06-09T05:53:43.510Z,290
2017-06-09T05:54:23.929Z,290
2017-06-09T05:55:04.296Z,290
2017-06-09T05:55:44.734Z,290
2017-06-09T05:56:25.468Z,295
2017-06-09T05:57:05.870Z,295
2017-06-09T05:57:46.454Z,295
2017-06-09T05:58:26.879Z,295
2017-06-09T05:59:07.346Z,300
2017-06-09T06:01:46.597Z,315
2017-06-09T06:02:26.806Z,315
2017-06-09T06:03:07.213Z,320
2017-06-09T06:03:47.700Z,320
2017-06-09T06:04:28.085Z,325
2017-06-09T06:05:08.585Z,325
2017-06-09T06:05:48.909Z,305
2017-06-09T06:06:29.428Z,340
2017-06-09T06:07:09.798Z,345
2017-06-09T06:07:50.339Z,350
2017-06-09T06:08:30.741Z,355
2017-06-09T06:09:11.180Z,365
2017-06-09T06:09:51.569Z,370
2017-06-09T06:10:32.008Z,370
2017-06-09T06:11:12.404Z,380
2017-06-09T06:11:52.809Z,390
2017-06-09T06:12:33.205Z,400
2017-06-09T06:13:13.588Z,405
2017-06-09T06:13:54.029Z,415
2017-06-09T06:14:34.405Z,420
2017-06-09T06:15:14.827Z,430
2017-06-09T06:15:55.238Z,440
2017-06-09T06:16:35.706Z,440
2017-06-09T06:17:16.063Z,440
2017-06-09T06:17:56.484Z,440
2017-06-09T06:18:36.883Z,465
2017-06-09T06:19:17.310Z,470
2017-06-09T06:19:57.695Z,495
2017-06-09T06:20:38.137Z,510
2017-06-09T06:21:18.543Z,495
2017-06-09T06:21:59.056Z,525
2017-06-09T06:22:39.329Z,530
2017-06-09T06:23:19.775Z,530
2017-06-09T06:24:00.179Z,530
2017-06-09T06:24:40.619Z,535
2017-06-09T06:25:21.025Z,530
2017-06-09T06:26:01.421Z,530
2017-06-09T06:26:41.861Z,530
2017-06-09T06:27:22.305Z,530
2017-06-09T06:28:02.720Z,495
2017-06-09T06:28:43.137Z,510
2017-06-09T06:29:23.707Z,525
2017-06-09T06:30:04.207Z,525
2017-06-09T06:30:44.636Z,505
2017-06-09T06:31:25.028Z,530
2017-06-09T06:32:05.454Z,560
2017-06-09T06:32:45.857Z,585
2017-06-09T06:33:26.247Z,600
2017-06-09T06:34:06.673Z,600
2017-06-09T06:34:47.198Z,605
2017-06-09T06:35:27.572Z,630
2017-06-09T06:36:08.014Z,655
2017-06-09T06:36:48.377Z,675
2017-06-09T06:37:28.822Z,690
2017-06-09T06:38:09.380Z,690
2017-06-09T06:38:49.733Z,715
2017-06-09T06:39:30.154Z,730
2017-06-09T06:40:10.546Z,740
2017-06-09T06:40:50.972Z,750
2017-06-09T06:41:31.413Z,770
2017-06-09T06:42:11.844Z,780
2017-06-09T06:42:52.249Z,785
2017-06-09T06:43:32.664Z,795
2017-06-09T06:44:13.165Z,775
2017-06-09T06:44:53.554Z,765
2017-06-09T06:45:34.038Z,765
2017-06-09T06:46:14.562Z,765
2017-06-09T06:46:54.900Z,765
2017-06-09T06:47:35.307Z,765
2017-06-09T06:48:15.684Z,740
2017-06-09T06:48:56.091Z,725
2017-06-09T06:49:36.534Z,720
2017-06-09T06:50:16.924Z,720
2017-06-09T06:50:57.392Z,705
2017-06-09T06:51:37.855Z,705
2017-06-09T06:52:18.249Z,695
2017-06-09T06:52:58.667Z,700
2017-06-09T06:53:39.074Z,700
2017-06-09T06:54:19.490Z,695
2017-06-09T06:54:59.929Z,690
2017-06-09T06:55:40.377Z,675
2017-06-09T06:56:20.767Z,675
2017-06-09T06:57:01.178Z,680
2017-06-09T06:57:41.589Z,685
2017-06-09T06:58:21.979Z,705
2017-06-09T06:59:02.421Z,735
2017-06-09T06:59:42.875Z,745
2017-06-09T07:00:23.321Z,760
2017-06-09T07:01:03.750Z,775
2017-06-09T07:01:44.171Z,790
2017-06-09T07:02:24.576Z,820
2017-06-09T07:03:05.008Z,820
2017-06-09T07:03:45.437Z,840
2017-06-09T07:04:25.903Z,855
2017-06-09T07:05:06.335Z,855
2017-06-09T07:05:46.731Z,815
2017-06-09T07:06:27.143Z,795
2017-06-09T07:07:07.521Z,785
2017-06-09T07:07:48.074Z,780
2017-06-09T07:08:28.488Z,805
2017-06-09T07:09:08.918Z,825
2017-06-09T07:09:49.272Z,850
2017-06-09T07:10:29.713Z,855
2017-06-09T07:11:10.112Z,860
2017-06-09T07:11:50.623Z,860
2017-06-09T07:12:30.923Z,885
2017-06-09T07:13:11.326Z,895
2017-06-09T07:13:51.767Z,915
2017-06-09T07:14:32.210Z,950
2017-06-09T07:15:12.650Z,950
2017-06-09T07:15:53.051Z,965
2017-06-09T07:16:33.468Z,965
2017-06-09T07:17:13.825Z,955
2017-06-09T07:17:54.263Z,985
2017-06-09T07:18:34.685Z,980
2017-06-09T07:19:15.161Z,955
2017-06-09T07:19:55.655Z,960
2017-06-09T07:20:35.936Z,975
2017-06-09T07:21:16.338Z,1005
2017-06-09T07:21:56.769Z,995
2017-06-09T07:22:37.198Z,1015
2017-06-09T07:23:17.629Z,990
2017-06-09T07:23:58.012Z,985
2017-06-09T07:24:38.452Z,995
2017-06-09T07:25:19.102Z,1035
2017-06-09T07:25:59.531Z,1075
2017-06-09T07:26:40.010Z,1140
2017-06-09T07:27:20.344Z,1075
2017-06-09T07:28:00.759Z,1150
2017-06-09T07:28:41.139Z,1115
2017-06-09T07:29:21.796Z,1045
2017-06-09T07:30:02.006Z,1010
2017-06-09T07:30:42.456Z,965
2017-06-09T07:31:22.915Z,950
2017-06-09T07:32:03.281Z,900
2017-06-09T07:32:43.786Z,885
2017-06-09T07:33:24.152Z,870
2017-06-09T07:34:04.588Z,845
2017-06-09T07:34:44.997Z,835
2017-06-09T07:35:25.341Z,815
2017-06-09T07:36:05.762Z,805
2017-06-09T07:36:46.353Z,810
2017-06-09T07:37:26.672Z,795
2017-06-09T07:38:07.113Z,795
2017-06-09T07:38:47.532Z,790
2017-06-09T07:39:27.980Z,790
2017-06-09T07:40:08.467Z,780
2017-06-09T07:40:48.908Z,775
2017-06-09T07:41:29.318Z,780
2017-06-09T07:42:09.668Z,790
2017-06-09T07:42:50.098Z,795
2017-06-09T07:43:30.510Z,810
2017-06-09T07:44:11.022Z,830
2017-06-09T07:44:51.430Z,820
2017-06-09T07:45:31.873Z,815
2017-06-09T07:46:12.243Z,795
2017-06-09T07:46:52.662Z,795
2017-06-09T07:47:33.182Z,800
2017-06-09T07:48:13.527Z,800
2017-06-09T07:48:53.933Z,805
2017-06-09T07:49:34.384Z,795
2017-06-09T07:50:14.857Z,775
2017-06-09T07:50:55.209Z,725
2017-06-09T07:51:35.633Z,715
2017-06-09T07:52:16.038Z,705
2017-06-09T07:52:56.496Z,700
2017-06-09T07:53:36.874Z,710
2017-06-09T07:54:17.355Z,710
2017-06-09T07:54:57.771Z,725
2017-06-09T07:55:38.170Z,735
2017-06-09T07:56:18.560Z,745
2017-06-09T07:56:59.148Z,760
2017-06-09T07:57:39.381Z,780
2017-06-09T07:58:19.812Z,765
2017-06-09T07:59:00.236Z,750
2017-06-09T07:59:40.640Z,690
2017-06-09T08:00:21.098Z,690
2017-06-09T08:01:01.503Z,675
2017-06-09T08:01:41.894Z,685
2017-06-09T08:02:22.297Z,695
2017-06-09T08:03:02.689Z,705
2017-06-09T08:03:43.156Z,720
2017-06-09T08:04:23.536Z,735
2017-06-09T08:05:03.921Z,755
2017-06-09T08:05:44.363Z,765
2017-06-09T08:06:24.787Z,775
2017-06-09T08:07:05.218Z,790
2017-06-09T08:07:45.754Z,815
2017-06-09T08:08:26.074Z,830
2017-06-09T08:09:06.459Z,835
2017-06-09T08:09:46.845Z,865
2017-06-09T08:10:27.299Z,900
2017-06-09T08:11:07.703Z,950
2017-06-09T08:11:48.122Z,1015
2017-06-09T08:12:28.542Z,1120
2017-06-09T08:13:08.973Z,1185
2017-06-09T08:13:49.318Z,1380
2017-06-09T08:14:29.760Z,1530
2017-06-09T08:15:10.155Z,1600
2017-06-09T08:15:50.544Z,1530
2017-06-09T08:16:30.969Z,1230
2017-06-09T08:17:11.378Z,1060
2017-06-09T08:17:51.799Z,1010
2017-06-09T08:18:32.205Z,930
2017-06-09T08:19:12.638Z,935
2017-06-09T08:19:53.134Z,910
2017-06-09T08:20:33.523Z,925
2017-06-09T08:21:13.953Z,985
2017-06-09T08:21:54.405Z,1090
2017-06-09T08:22:34.800Z,1070
2017-06-09T08:23:15.197Z,1075
2017-06-09T08:23:55.657Z,1075
2017-06-09T08:24:36.071Z,1135
2017-06-09T08:25:16.427Z,1235
2017-06-09T08:25:56.868Z,1225
2017-06-09T08:26:37.241Z,1015
2017-06-09T08:27:17.705Z,1005
2017-06-09T08:27:58.096Z,830
2017-06-09T08:28:38.471Z,695
2017-06-09T08:29:18.905Z,645
2017-06-09T08:29:59.363Z,645
2017-06-09T08:32:12.460Z,755
2017-06-09T08:32:52.861Z,805
2017-06-09T08:33:33.230Z,870
2017-06-09T08:34:13.658Z,940
2017-06-09T08:34:54.090Z,1055
2017-06-09T08:35:34.482Z,1255
2017-06-09T08:36:14.903Z,1335
2017-06-09T08:36:55.359Z,1415
2017-06-09T08:37:35.791Z,1435
2017-06-09T08:38:16.169Z,1395
2017-06-09T08:38:56.556Z,1300
2017-06-09T08:39:36.956Z,1315
2017-06-09T08:40:17.344Z,1490
2017-06-09T08:40:57.760Z,1970
2017-06-09T08:41:38.141Z,2575
2017-06-09T08:42:18.565Z,2380
2017-06-09T08:42:59.038Z,2675
2017-06-09T08:43:39.433Z,2635
2017-06-09T08:44:19.829Z,1455
2017-06-09T08:45:00.239Z,1175
2017-06-09T08:45:40.659Z,1115
2017-06-09T08:46:21.071Z,1125
2017-06-09T08:47:01.494Z,1160
2017-06-09T08:47:41.880Z,1240
2017-06-09T08:48:22.334Z,1425
2017-06-09T08:49:02.734Z,1405
2017-06-09T08:49:43.146Z,1380
2017-06-09T08:50:23.555Z,1465
2017-06-09T08:51:03.997Z,1525
2017-06-09T08:51:44.371Z,1475
2017-06-09T08:52:24.832Z,1475
2017-06-09T08:53:05.203Z,1280
2017-06-09T08:53:45.593Z,1160
2017-06-09T08:54:26.005Z,975
2017-06-09T08:55:06.458Z,920
2017-06-09T08:55:46.841Z,890
2017-06-09T08:56:27.310Z,860
2017-06-09T08:57:07.703Z,820
2017-06-09T08:57:48.095Z,795
2017-06-09T08:58:28.489Z,780
2017-06-09T08:59:08.912Z,770
2017-06-09T08:59:49.346Z,765
2017-06-09T09:00:29.796Z,770
2017-06-09T09:01:10.267Z,775
2017-06-09T09:01:50.662Z,780
2017-06-09T09:02:31.067Z,795
2017-06-09T09:03:11.503Z,820
2017-06-09T09:03:51.941Z,850
2017-06-09T09:04:32.351Z,925
2017-06-09T09:05:12.775Z,990
2017-06-09T09:05:53.208Z,1045
2017-06-09T09:06:33.615Z,1050
2017-06-09T09:07:14.044Z,1075
2017-06-09T09:07:54.467Z,1110
2017-06-09T09:08:34.972Z,1150
2017-06-09T09:09:15.347Z,1190
2017-06-09T09:09:55.742Z,1190
2017-06-09T09:10:36.158Z,1355
2017-06-09T09:11:16.597Z,1390
2017-06-09T09:11:57.084Z,1480
2017-06-09T09:12:37.432Z,1480
2017-06-09T09:13:17.849Z,1520
2017-06-09T09:13:58.309Z,1590
2017-06-09T09:14:38.708Z,1670
2017-06-09T09:15:19.088Z,1285
2017-06-09T09:15:59.566Z,1220
2017-06-09T09:16:39.905Z,1255
2017-06-09T09:17:20.311Z,1360
2017-06-09T09:18:00.755Z,1620
2017-06-09T09:18:41.190Z,1860
2017-06-09T09:19:21.636Z,2030
2017-06-09T09:20:02.064Z,2820
2017-06-09T09:20:42.482Z,2950
2017-06-09T09:21:22.890Z,2665
2017-06-09T09:22:03.273Z,2385
2017-06-09T09:22:43.701Z,2860
2017-06-09T09:23:24.160Z,3135
2017-06-09T09:24:04.537Z,2675
2017-06-09T09:24:44.922Z,2375
2017-06-09T09:25:25.409Z,2080
2017-06-09T09:26:05.826Z,2330
2017-06-09T09:26:46.272Z,2760
2017-06-09T09:27:26.645Z,2975
2017-06-09T09:28:07.112Z,3640
2017-06-09T09:28:47.522Z,2980
2017-06-09T09:29:27.894Z,3400
2017-06-09T09:30:08.322Z,3450
2017-06-09T09:30:48.742Z,2915
2017-06-09T09:31:29.118Z,3045
2017-06-09T09:32:09.619Z,3010
2017-06-09T09:32:49.986Z,3330
2017-06-09T09:33:30.424Z,2430
2017-06-09T09:34:10.820Z,3825
2017-06-09T09:34:51.261Z,3240
2017-06-09T09:35:31.663Z,3765
2017-06-09T09:36:12.073Z,3580
2017-06-09T09:36:52.622Z,4410
2017-06-09T09:37:33.021Z,4675
2017-06-09T09:38:13.435Z,4025
2017-06-09T09:38:53.836Z,3775
2017-06-09T09:39:34.309Z,3745
2017-06-09T09:40:14.659Z,3375
2017-06-09T09:40:55.075Z,2940
2017-06-09T09:41:35.451Z,2270
2017-06-09T09:42:15.899Z,2210
2017-06-09T09:42:56.375Z,2260
2017-06-09T09:43:36.763Z,2375